Time;durP1;ratioP1;P1;durP2;ratioP2;P2;SDS_P1;SDS_P2;PMS_P1;PMS_P2;Temp;Humidity;BMP_temperature;BMP_pressure;BME280_temperature;BME280_humidity;BME280_pressure;Samples;Min_cycle;Max_cycle;Signal;HPM_P1;HPM_P2
2022/08/31 00:05:24;;;;;;;13.30;8.40;;;;;;;16.26;94.04;94048.16;5008167;28;20038;-69
2022/08/31 00:07:51;;;;;;;15.30;9.40;;;;;;;16.22;94.01;94045.53;5008092;28;20095;-71
2022/08/31 00:10:19;;;;;;;13.45;8.60;;;;;;;16.32;94.10;94047.13;5008727;28;20049;-70
2022/08/31 00:13:02;;;;;;;13.02;8.80;;;;;;;16.32;93.61;94044.38;5007471;28;20130;-66
2022/08/31 00:15:29;;;;;;;13.07;8.68;;;;;;;16.49;92.84;94041.41;5008008;28;20407;-66
2022/08/31 00:17:56;;;;;;;14.90;9.10;;;;;;;16.57;92.02;94037.91;5008609;28;20075;-69
2022/08/31 00:20:24;;;;;;;13.80;9.00;;;;;;;16.56;91.54;94046.72;5008667;28;20380;-67
2022/08/31 00:23:09;;;;;;;15.95;9.27;;;;;;;16.64;91.98;94042.44;5008932;28;20454;-66
2022/08/31 00:25:37;;;;;;;15.52;9.60;;;;;;;16.48;92.42;94042.63;5012534;28;20096;-65
2022/08/31 00:28:05;;;;;;;14.68;9.02;;;;;;;16.53;92.10;94047.59;5012163;28;20072;-65
2022/08/31 00:30:33;;;;;;;12.45;8.05;;;;;;;16.44;90.73;94053.06;5012054;28;20056;-65
2022/08/31 00:33:00;;;;;;;11.17;7.20;;;;;;;16.32;88.90;94047.13;5012060;28;20045;-66
2022/08/31 00:35:28;;;;;;;9.98;6.20;;;;;;;16.42;87.14;94049.97;5012222;28;20072;-67
2022/08/31 00:37:55;;;;;;;11.68;6.88;;;;;;;16.40;87.96;94047.66;5009688;28;20556;-68
2022/08/31 00:40:22;;;;;;;10.40;6.35;;;;;;;16.36;87.35;94039.47;5012998;28;20042;-71
2022/08/31 00:42:49;;;;;;;9.13;6.00;;;;;;;16.41;87.43;94053.97;5012419;28;20042;-66
2022/08/31 00:45:16;;;;;;;11.43;6.33;;;;;;;16.56;86.36;94055.03;5011997;28;20052;-68
2022/08/31 00:47:42;;;;;;;10.77;6.10;;;;;;;16.36;87.88;94052.56;5026716;28;20042;-65
2022/08/31 00:50:11;;;;;;;8.73;5.95;;;;;;;16.70;86.87;94054.50;5011511;28;20449;-66
2022/08/31 00:52:41;;;;;;;9.02;6.25;;;;;;;16.65;87.32;94059.84;5011525;28;20049;-66
2022/08/31 00:55:10;;;;;;;8.43;5.70;;;;;;;16.77;86.52;94067.31;5011819;28;20049;-65
2022/08/31 00:57:41;;;;;;;9.83;5.90;;;;;;;16.88;85.35;94056.63;5011546;28;20060;-65
2022/08/31 01:00:16;;;;;;;8.02;5.80;;;;;;;16.65;87.07;94057.06;5011723;28;20041;-65
2022/08/31 01:02:43;;;;;;;9.35;6.07;;;;;;;16.71;86.76;94061.56;5011498;28;20083;-65
2022/08/31 01:05:12;;;;;;;8.43;5.50;;;;;;;16.72;87.18;94063.13;5011409;28;20042;-65
2022/08/31 01:07:39;;;;;;;8.13;5.22;;;;;;;16.80;86.66;94058.06;5011107;28;20050;-66
2022/08/31 01:10:07;;;;;;;8.47;5.67;;;;;;;16.41;88.13;94060.28;5011467;28;20070;-66
2022/08/31 01:12:35;;;;;;;8.43;5.70;;;;;;;16.45;88.16;94066.47;5011206;28;20049;-69
2022/08/31 01:15:06;;;;;;;8.63;5.53;;;;;;;16.49;88.09;94060.81;5011182;28;20147;-70
2022/08/31 01:17:35;;;;;;;8.77;5.78;;;;;;;16.21;89.49;94063.34;5011002;28;20050;-65
2022/08/31 01:20:45;;;;;;;8.23;5.50;;;;;;;16.25;90.05;94066.75;5010010;28;20052;-66
2022/08/31 01:23:17;;;;;;;8.03;5.30;;;;;;;16.13;91.21;94073.13;5010307;28;20064;-69
2022/08/31 01:25:47;;;;;;;7.32;4.95;;;;;;;16.08;91.74;94073.72;5010730;28;20510;-66
2022/08/31 01:28:14;;;;;;;7.25;5.15;;;;;;;16.04;91.64;94079.34;5011195;28;20505;-66
2022/08/31 01:30:41;;;;;;;7.47;5.18;;;;;;;15.92;92.26;94072.63;5010587;28;20046;-65
2022/08/31 01:33:08;;;;;;;8.82;5.00;;;;;;;15.81;92.24;94080.50;5010632;28;20398;-71
2022/08/31 01:35:43;;;;;;;7.10;5.07;;;;;;;15.93;91.72;94079.69;5009155;28;20038;-71
2022/08/31 01:38:12;;;;;;;6.60;4.68;;;;;;;16.20;91.49;94074.88;5008837;28;20045;-72
2022/08/31 01:40:48;;;;;;;6.53;4.60;;;;;;;16.09;91.55;94078.00;5011358;28;20045;-68
2022/08/31 01:43:15;;;;;;;6.57;4.50;;;;;;;15.90;91.50;94072.31;5011019;28;20057;-65
2022/08/31 01:45:42;;;;;;;6.15;3.72;;;;;;;16.15;90.09;94070.69;5010340;28;20046;-66
2022/08/31 01:48:09;;;;;;;7.40;4.27;;;;;;;16.14;90.33;94066.38;5010358;28;20034;-68
2022/08/31 01:50:36;;;;;;;5.88;3.92;;;;;;;15.93;91.09;94063.09;5009592;28;20340;-67
2022/08/31 01:53:03;;;;;;;6.10;4.07;;;;;;;15.81;91.63;94063.13;5010033;28;20048;-71
2022/08/31 01:55:30;;;;;;;6.43;3.95;;;;;;;15.81;92.20;94063.91;5009805;28;20442;-68
2022/08/31 01:58:00;;;;;;;5.80;4.00;;;;;;;15.75;91.87;94071.22;5009615;28;20054;-66
2022/08/31 02:00:28;;;;;;;6.43;3.90;;;;;;;15.78;91.96;94071.09;5009195;28;20046;-64
2022/08/31 02:02:57;;;;;;;6.10;3.88;;;;;;;15.68;92.94;94074.97;5010192;28;20034;-79
2022/08/31 02:05:24;;;;;;;6.10;4.00;;;;;;;15.76;91.54;94075.53;5009625;28;20046;-69
2022/08/31 02:07:51;;;;;;;6.78;4.40;;;;;;;15.88;89.50;94069.22;5009321;28;20050;-68
2022/08/31 02:10:18;;;;;;;7.13;4.65;;;;;;;15.79;88.55;94066.34;5009385;28;20075;-66
2022/08/31 02:12:44;;;;;;;7.07;4.50;;;;;;;15.56;89.88;94073.00;5009235;28;20050;-68
2022/08/31 02:15:11;;;;;;;7.13;5.10;;;;;;;15.54;90.13;94073.44;5009334;28;20381;-72
2022/08/31 02:17:38;;;;;;;7.72;5.38;;;;;;;15.38;91.28;94073.56;5009649;28;20045;-69
2022/08/31 02:20:08;;;;;;;7.10;4.80;;;;;;;15.41;91.19;94080.19;5010292;28;20092;-71
2022/08/31 02:22:35;;;;;;;7.93;4.90;;;;;;;15.35;91.75;94082.72;5010067;28;20040;-70
2022/08/31 02:25:03;;;;;;;7.47;5.13;;;;;;;15.51;90.73;94082.63;5010254;28;20064;-68
2022/08/31 02:27:29;;;;;;;7.60;5.18;;;;;;;15.29;91.59;94079.75;5009805;28;20038;-71
2022/08/31 02:29:56;;;;;;;9.07;5.20;;;;;;;15.25;92.43;94095.69;5010197;28;20556;-77
2022/08/31 02:32:23;;;;;;;7.95;5.05;;;;;;;15.42;91.70;94085.28;5010242;28;20515;-68
2022/08/31 02:34:51;;;;;;;7.22;4.75;;;;;;;15.38;91.22;94085.38;5009594;28;20403;-70
2022/08/31 02:37:18;;;;;;;6.20;4.40;;;;;;;15.29;92.22;94093.56;5009811;28;20410;-72
2022/08/31 02:39:46;;;;;;;6.65;4.60;;;;;;;15.16;92.82;94101.06;5009684;28;20054;-69
2022/08/31 02:42:15;;;;;;;6.60;4.10;;;;;;;15.40;91.86;94087.72;5009516;28;20398;-69
2022/08/31 02:44:44;;;;;;;6.45;4.05;;;;;;;15.28;91.58;94092.00;5004425;28;20054;-73
2022/08/31 02:47:11;;;;;;;5.43;3.83;;;;;;;15.21;92.11;94091.44;5008053;28;20042;-69
2022/08/31 02:49:37;;;;;;;7.50;4.33;;;;;;;15.08;92.10;94108.03;5009746;28;20058;-72
2022/08/31 02:52:04;;;;;;;5.30;3.53;;;;;;;15.33;91.84;94102.53;5009519;28;20048;-66
2022/08/31 02:54:31;;;;;;;6.28;3.83;;;;;;;15.26;92.89;94101.97;5009270;28;20045;-66
2022/08/31 02:56:58;;;;;;;6.38;3.80;;;;;;;15.24;93.99;94101.66;5009520;28;20388;-78
2022/08/31 02:59:24;;;;;;;5.82;3.63;;;;;;;15.48;92.61;94099.31;5009688;28;20139;-71
2022/08/31 03:01:52;;;;;;;7.43;3.87;;;;;;;15.70;92.92;94114.03;5009299;28;20042;-68
2022/08/31 03:04:20;;;;;;;5.88;3.40;;;;;;;15.63;92.09;94102.41;5009338;28;20062;-69
2022/08/31 03:06:46;;;;;;;6.03;3.08;;;;;;;15.56;92.54;94093.13;5009224;28;20541;-66
2022/08/31 03:09:14;;;;;;;6.35;3.33;;;;;;;15.35;95.41;94082.72;5009283;28;20491;-66
2022/08/31 03:11:41;;;;;;;6.97;3.50;;;;;;;15.00;96.99;94084.59;5009126;28;20446;-65
2022/08/31 03:14:08;;;;;;;8.73;4.10;;;;;;;14.80;96.84;94093.06;5009036;28;20046;-70
2022/08/31 03:16:38;;;;;;;7.13;4.60;;;;;;;14.87;96.29;94093.63;5009047;28;20080;-69
2022/08/31 03:19:06;;;;;;;7.05;4.70;;;;;;;14.92;96.50;94086.78;5009238;28;20398;-67
2022/08/31 03:21:33;;;;;;;8.27;5.30;;;;;;;14.84;96.50;94086.22;5009005;28;20050;-68
2022/08/31 03:24:00;;;;;;;8.10;5.40;;;;;;;14.81;95.58;94092.63;5007859;28;20042;-76
2022/08/31 03:26:27;;;;;;;8.57;5.33;;;;;;;14.77;97.31;94097.47;5009224;28;20705;-69
2022/08/31 03:28:54;;;;;;;8.85;5.78;;;;;;;14.68;96.92;94097.34;5008599;28;20902;-66
2022/08/31 03:31:23;;;;;;;12.52;6.00;;;;;;;14.70;96.67;94092.91;5008718;28;20050;-66
2022/08/31 03:33:50;;;;;;;9.30;5.03;;;;;;;14.88;96.76;94088.88;5008987;28;20042;-66
2022/08/31 03:36:16;;;;;;;7.88;4.80;;;;;;;14.80;96.19;94082.00;5008854;28;20049;-66
2022/08/31 03:38:43;;;;;;;8.17;4.20;;;;;;;14.89;95.37;94087.66;5008546;28;20046;-67
2022/08/31 03:41:13;;;;;;;7.55;3.90;;;;;;;15.04;94.44;94104.59;5008315;28;20430;-71
2022/08/31 03:43:41;;;;;;;4.95;2.95;;;;;;;15.03;94.08;94091.97;5006508;28;20412;-73
2022/08/31 03:46:08;;;;;;;5.55;3.50;;;;;;;15.02;94.52;94074.63;5009121;28;20450;-70
2022/08/31 03:48:38;;;;;;;5.60;3.80;;;;;;;15.00;94.77;94079.06;5008334;28;20612;-71
2022/08/31 03:51:05;;;;;;;6.40;3.97;;;;;;;14.96;94.28;94090.97;5008301;28;20432;-68
2022/08/31 03:53:33;;;;;;;6.20;4.10;;;;;;;14.72;94.12;94096.00;5007950;28;20048;-71
2022/08/31 03:56:01;;;;;;;7.72;4.30;;;;;;;14.64;96.61;94108.47;5007973;28;20042;-67
2022/08/31 03:58:28;;;;;;;6.93;4.03;;;;;;;14.71;96.37;94102.75;5006709;28;20041;-70
2022/08/31 04:00:55;;;;;;;7.28;4.50;;;;;;;14.65;97.59;94107.28;5007979;28;20049;-72
2022/08/31 04:03:22;;;;;;;7.63;4.23;;;;;;;14.74;97.56;94103.88;5008074;28;20038;-66
2022/08/31 04:05:49;;;;;;;6.45;3.95;;;;;;;14.88;96.22;94116.50;5007805;28;20068;-65
2022/08/31 04:08:18;;;;;;;5.70;3.20;;;;;;;14.89;95.44;94118.03;5007504;28;20050;-68
2022/08/31 04:10:48;;;;;;;6.32;3.63;;;;;;;14.83;94.83;94119.78;5006475;28;20038;-69
2022/08/31 04:13:15;;;;;;;6.95;3.78;;;;;;;14.83;95.09;94123.34;5008054;28;20056;-65
2022/08/31 04:15:42;;;;;;;7.17;4.20;;;;;;;14.84;95.71;94107.53;5007593;28;20042;-66
2022/08/31 04:18:09;;;;;;;6.32;3.97;;;;;;;14.69;96.78;94099.66;5008226;28;20084;-69
2022/08/31 04:20:39;;;;;;;6.97;3.42;;;;;;;14.76;96.76;94098.69;5007541;28;20048;-67
2022/08/31 04:23:07;;;;;;;5.80;3.20;;;;;;;14.51;96.45;94100.13;5008019;28;20053;-71
2022/08/31 04:25:38;;;;;;;5.55;3.63;;;;;;;14.71;95.54;94088.19;5007772;28;20352;-69
2022/08/31 04:28:07;;;;;;;6.00;3.87;;;;;;;14.75;94.84;94084.09;5007758;28;20076;-67
2022/08/31 04:30:42;;;;;;;6.85;3.97;;;;;;;14.73;94.89;94105.88;5007708;28;20061;-66
2022/08/31 04:33:09;;;;;;;6.45;3.97;;;;;;;14.69;94.38;94105.19;5007861;28;20395;-70
2022/08/31 04:35:39;;;;;;;6.55;3.70;;;;;;;14.72;94.27;94109.81;5007363;28;20048;-69
2022/08/31 04:38:06;;;;;;;5.85;3.60;;;;;;;14.79;94.13;94111.63;5007923;28;20042;-65
2022/08/31 04:40:37;;;;;;;6.27;3.50;;;;;;;14.69;93.90;94105.19;5007580;28;20404;-71
2022/08/31 04:43:06;;;;;;;4.90;3.10;;;;;;;14.65;92.65;94104.53;5006891;28;20100;-65
2022/08/31 04:45:33;;;;;;;5.93;3.38;;;;;;;14.72;91.38;94109.06;5007512;28;20542;-68
2022/08/31 04:47:59;;;;;;;5.88;3.70;;;;;;;14.64;91.58;94111.25;5008647;28;20041;-67
2022/08/31 04:50:26;;;;;;;6.55;3.95;;;;;;;14.70;90.92;94122.53;5007801;28;20048;-65
2022/08/31 04:52:53;;;;;;;6.70;4.00;;;;;;;14.57;91.09;94125.25;5006936;28;21817;-68
2022/08/31 04:55:29;;;;;;;5.97;3.67;;;;;;;14.68;90.00;94134.00;5005182;28;20112;-64
2022/08/31 04:57:56;;;;;;;5.10;3.40;;;;;;;14.61;88.34;94131.47;5014855;28;20042;-65
2022/08/31 05:00:23;;;;;;;7.55;3.65;;;;;;;14.58;88.54;94130.31;5006629;28;20450;-71
2022/08/31 05:02:52;;;;;;;6.80;3.50;;;;;;;14.58;88.64;94135.84;5007295;28;20049;-68
2022/08/31 05:05:18;;;;;;;6.20;4.17;;;;;;;14.49;89.68;94132.16;5007648;28;20053;-69
2022/08/31 05:07:45;;;;;;;5.85;3.60;;;;;;;14.52;89.38;94131.28;5007111;28;20046;-67
2022/08/31 05:10:12;;;;;;;7.22;3.92;;;;;;;14.47;89.09;94124.31;5008898;28;20052;-70
2022/08/31 05:12:38;;;;;;;6.07;3.70;;;;;;;14.36;89.25;94119.06;5010674;28;20088;-65
2022/08/31 05:15:06;;;;;;;6.05;3.67;;;;;;;14.47;88.93;94123.53;5010942;28;20073;-68
2022/08/31 05:17:32;;;;;;;7.53;4.10;;;;;;;14.35;89.64;94131.31;5010506;28;20411;-69
2022/08/31 05:19:59;;;;;;;6.25;3.90;;;;;;;14.25;89.11;94132.38;5011043;28;20446;-68
2022/08/31 05:22:28;;;;;;;6.25;3.80;;;;;;;14.36;89.81;94127.34;5010983;28;20191;-67
2022/08/31 05:24:55;;;;;;;8.13;4.20;;;;;;;14.39;90.26;94131.22;5009907;28;20189;-68
2022/08/31 05:27:21;;;;;;;7.40;4.35;;;;;;;14.44;89.41;94127.16;5010538;28;20491;-65
2022/08/31 05:29:48;;;;;;;6.63;4.23;;;;;;;14.38;89.81;94122.16;5010514;28;20037;-65
2022/08/31 05:32:15;;;;;;;7.65;4.35;;;;;;;14.43;89.52;94128.34;5009194;28;20050;-70
2022/08/31 05:34:41;;;;;;;7.93;4.50;;;;;;;14.50;88.06;94128.19;5010105;28;20038;-68
2022/08/31 05:37:08;;;;;;;6.45;4.15;;;;;;;14.49;87.91;94138.44;5010357;28;20415;-71
2022/08/31 05:39:35;;;;;;;6.93;4.60;;;;;;;14.26;88.84;94133.16;5009795;28;20407;-66
2022/08/31 05:42:01;;;;;;;7.47;4.07;;;;;;;14.47;89.08;94132.59;5010302;28;20034;-66
2022/08/31 05:44:28;;;;;;;7.00;4.50;;;;;;;14.29;89.06;94121.25;5008954;28;20610;-69
2022/08/31 05:46:56;;;;;;;7.82;4.35;;;;;;;14.56;88.19;94135.50;5009498;28;20060;-68
2022/08/31 05:49:29;;;;;;;9.70;4.38;;;;;;;14.64;88.40;94136.09;5009339;28;20090;-69
2022/08/31 05:51:59;;;;;;;7.90;4.43;;;;;;;14.69;87.64;94134.78;5008469;28;20419;-70
2022/08/31 05:54:26;;;;;;;7.27;4.10;;;;;;;14.68;87.83;94144.28;5009422;28;20091;-65
2022/08/31 05:56:52;;;;;;;9.75;4.60;;;;;;;14.62;88.18;94146.03;5008341;28;20068;-65
2022/08/31 05:59:25;;;;;;;7.72;4.53;;;;;;;14.65;87.36;94145.94;5006563;28;20053;-65
2022/08/31 06:01:52;;;;;;;6.00;4.18;;;;;;;14.71;86.55;94137.91;5008210;28;20496;-68
2022/08/31 06:04:19;;;;;;;6.75;4.22;;;;;;;14.83;87.04;94139.13;5009424;28;20083;-65
2022/08/31 06:06:46;;;;;;;7.00;4.20;;;;;;;14.96;86.40;94140.72;5008571;28;20054;-64
2022/08/31 06:09:13;;;;;;;6.43;4.03;;;;;;;14.92;86.49;94140.06;5006346;28;20057;-67
2022/08/31 06:11:40;;;;;;;7.35;4.03;;;;;;;14.95;87.58;94139.19;5009299;28;20076;-65
2022/08/31 06:14:09;;;;;;;7.85;4.00;;;;;;;14.88;86.51;94146.91;5009669;28;20030;-66
2022/08/31 06:16:37;;;;;;;6.43;4.00;;;;;;;14.89;87.44;94140.16;5007141;28;20057;-65
2022/08/31 06:19:08;;;;;;;6.80;3.70;;;;;;;14.85;86.17;94133.94;5008791;28;20076;-68
2022/08/31 06:21:41;;;;;;;6.57;3.92;;;;;;;14.78;86.10;94134.94;5007827;28;20072;-66
2022/08/31 06:24:17;;;;;;;6.18;3.58;;;;;;;14.52;86.24;94132.03;5009003;28;20038;-65
2022/08/31 06:26:50;;;;;;;5.57;3.80;;;;;;;14.60;86.85;94134.66;5009173;28;20041;-65
2022/08/31 06:29:23;;;;;;;7.88;3.70;;;;;;;14.62;87.15;94144.03;5008934;28;20095;-64
2022/08/31 06:31:50;;;;;;;6.37;3.70;;;;;;;14.56;87.18;94134.75;5008338;28;20406;-65
2022/08/31 06:34:18;;;;;;;6.88;3.70;;;;;;;14.65;86.81;94129.38;5008205;28;20072;-68
2022/08/31 06:36:47;;;;;;;5.95;3.83;;;;;;;14.84;86.70;94132.41;5007607;28;20160;-70
2022/08/31 06:39:14;;;;;;;6.72;3.80;;;;;;;14.81;85.18;94133.28;5008915;28;20410;-66
2022/08/31 06:41:42;;;;;;;7.00;4.00;;;;;;;14.63;85.90;94140.09;5009088;28;20042;-66
2022/08/31 06:44:13;;;;;;;7.53;4.30;;;;;;;14.73;85.50;94152.06;5009584;28;20450;-65
2022/08/31 06:46:40;;;;;;;6.07;3.83;;;;;;;14.56;83.66;94156.84;5008397;28;20054;-65
2022/08/31 06:49:10;;;;;;;7.47;4.13;;;;;;;14.68;84.41;94152.59;5009365;28;20045;-66
2022/08/31 06:51:37;;;;;;;7.50;4.22;;;;;;;14.47;84.06;94162.19;5008772;28;20117;-65
2022/08/31 06:54:06;;;;;;;6.85;4.18;;;;;;;14.52;84.72;94167.94;5009533;28;20045;-66
2022/08/31 06:56:53;;;;;;;7.40;4.47;;;;;;;14.17;84.35;94159.38;5008051;28;20386;-65
2022/08/31 06:59:20;;;;;;;7.70;4.38;;;;;;;14.42;84.95;94171.75;5008510;28;20470;-67
2022/08/31 07:01:52;;;;;;;8.07;4.75;;;;;;;14.26;85.92;94171.78;5008807;28;20512;-65
2022/08/31 07:04:18;;;;;;;6.82;4.55;;;;;;;14.15;86.46;94166.56;5009266;28;20046;-65
2022/08/31 07:06:45;;;;;;;7.82;5.60;;;;;;;14.11;87.14;94169.38;5008752;28;20050;-66
2022/08/31 07:09:16;;;;;;;7.37;5.23;;;;;;;14.13;86.38;94168.97;5007890;28;20093;-66
2022/08/31 07:11:51;;;;;;;7.53;5.55;;;;;;;14.09;87.03;94157.25;5008922;28;20064;-65
2022/08/31 07:14:23;;;;;;;8.02;5.90;;;;;;;14.17;87.04;94162.13;5006659;28;20038;-65
2022/08/31 07:16:52;;;;;;;7.18;4.80;;;;;;;14.28;86.44;94167.38;5008736;28;20033;-65
2022/08/31 07:19:20;;;;;;;8.77;5.18;;;;;;;14.25;85.84;94171.03;5008923;28;20046;-65
2022/08/31 07:21:53;;;;;;;8.40;5.00;;;;;;;14.35;85.77;94169.97;5008641;28;20467;-66
2022/08/31 07:24:24;;;;;;;7.80;5.63;;;;;;;14.27;86.37;94165.84;5009138;28;20041;-71
2022/08/31 07:26:55;;;;;;;9.05;5.22;;;;;;;14.41;85.46;94170.22;5008711;28;20042;-68
2022/08/31 07:29:24;;;;;;;8.07;5.45;;;;;;;14.58;84.07;94165.47;5008604;28;20050;-65
2022/08/31 07:31:50;;;;;;;7.38;4.90;;;;;;;14.68;82.24;94175.44;5008394;28;20046;-70
2022/08/31 07:34:20;;;;;;;6.20;4.00;;;;;;;14.89;80.85;94171.34;4995455;28;20049;-69
2022/08/31 07:42:34;;;;;;;7.00;4.43;;;;;;;15.58;80.71;94167.38;5008609;28;20042;-66
2022/08/31 07:45:06;;;;;;;7.40;4.78;;;;;;;15.48;81.75;94171.25;5007613;28;21352;-66
2022/08/31 07:47:44;;;;;;;7.43;4.40;;;;;;;15.65;80.37;94166.38;5008019;28;20052;-66
2022/08/31 07:50:13;;;;;;;7.95;4.68;;;;;;;15.82;80.54;94165.06;5008459;28;20045;-67
2022/08/31 07:52:46;;;;;;;7.15;4.60;;;;;;;15.87;82.48;94169.28;5008067;28;20054;-65
2022/08/31 07:55:16;;;;;;;8.45;4.90;;;;;;;15.92;82.54;94160.44;5008751;28;20042;-64
2022/08/31 07:57:44;;;;;;;7.03;4.57;;;;;;;16.10;81.89;94162.63;5008394;28;20158;-65
2022/08/31 08:00:13;;;;;;;7.13;4.60;;;;;;;16.24;80.46;94172.44;5008671;28;20038;-65
2022/08/31 08:02:45;;;;;;;6.88;4.45;;;;;;;16.28;80.67;94170.31;5008289;28;20046;-65
2022/08/31 08:05:21;;;;;;;11.80;6.45;;;;;;;16.11;82.68;94166.94;5008308;28;20049;-65
2022/08/31 08:07:56;;;;;;;9.88;5.85;;;;;;;16.14;83.15;94171.59;5007656;28;20521;-63
2022/08/31 08:10:24;;;;;;;10.38;5.75;;;;;;;16.26;83.58;94165.25;5008162;28;20050;-63
2022/08/31 08:12:57;;;;;;;7.87;4.87;;;;;;;16.06;82.99;94170.28;5008062;28;20044;-63
2022/08/31 08:15:25;;;;;;;8.60;4.82;;;;;;;16.07;82.36;94167.03;5007980;28;20308;-66
2022/08/31 08:17:52;;;;;;;7.35;4.78;;;;;;;16.26;83.85;94170.00;5006361;28;20038;-68
2022/08/31 08:20:19;;;;;;;8.70;5.35;;;;;;;16.35;83.47;94172.88;5008617;28;20384;-68
2022/08/31 08:23:12;;;;;;;6.88;4.20;;;;;;;16.53;76.31;94173.03;4995048;28;21713;-64
2022/08/31 08:25:41;;;;;;;6.30;4.43;;;;;;;16.83;77.33;94176.41;5007652;28;20054;-64
2022/08/31 08:28:16;;;;;;;7.78;4.60;;;;;;;16.95;78.92;94174.78;5008242;28;20056;-64
2022/08/31 08:31:04;;;;;;;7.78;4.63;;;;;;;17.26;77.38;94176.84;5007492;28;20065;-69
2022/08/31 08:33:33;;;;;;;7.95;4.57;;;;;;;17.26;76.14;94174.84;5007307;28;20054;-65
2022/08/31 08:36:03;;;;;;;8.18;4.75;;;;;;;17.19;76.03;94185.44;5007912;28;20046;-66
2022/08/31 08:38:30;;;;;;;7.20;4.77;;;;;;;17.52;74.86;94174.69;5007617;28;20048;-64
2022/08/31 08:40:59;;;;;;;8.13;4.60;;;;;;;17.51;76.46;94175.94;5007737;28;20119;-67
2022/08/31 08:43:35;;;;;;;9.70;4.70;;;;;;;17.85;75.11;94179.78;5007793;28;20046;-65
2022/08/31 08:46:04;;;;;;;7.50;4.75;;;;;;;17.60;73.11;94175.19;5009586;28;20072;-65
2022/08/31 08:48:51;;;;;;;7.18;3.92;;;;;;;17.74;70.75;94194.84;5011200;28;20053;-65
2022/08/31 08:51:30;;;;;;;8.50;5.07;;;;;;;17.28;75.63;94188.25;5011530;28;20049;-64
2022/08/31 08:54:03;;;;;;;7.18;4.68;;;;;;;17.49;75.04;94192.25;4995314;28;20409;-66
2022/08/31 08:56:30;;;;;;;7.30;4.70;;;;;;;17.53;75.09;94187.34;5009965;28;20388;-66
2022/08/31 08:59:01;;;;;;;7.68;4.65;;;;;;;17.80;75.14;94197.81;5010365;28;20054;-69
2022/08/31 09:01:28;;;;;;;7.05;4.90;;;;;;;17.80;72.98;94195.03;5010955;28;20073;-63
2022/08/31 09:03:58;;;;;;;9.20;4.67;;;;;;;18.07;71.47;94204.72;5011610;28;20056;-65
2022/08/31 09:06:57;;;;;;;7.97;4.50;;;;;;;18.16;71.33;94199.97;5011599;28;20042;-67
2022/08/31 09:09:35;;;;;;;7.30;5.00;;;;;;;18.20;73.00;94201.84;5010443;28;20201;-67
2022/08/31 09:12:29;;;;;;;5.70;4.30;;;;;;;18.33;70.81;94200.50;5010068;28;20042;-66
2022/08/31 09:15:25;;;;;;;6.75;4.40;;;;;;;18.59;70.86;94200.22;5010253;28;20915;-70
2022/08/31 09:18:20;;;;;;;6.53;4.03;;;;;;;19.12;67.35;94202.00;5010747;28;20038;-67
2022/08/31 09:21:20;;;;;;;6.85;4.40;;;;;;;18.66;67.25;94210.28;5010808;28;20070;-65
2022/08/31 09:24:09;;;;;;;5.85;4.20;;;;;;;17.97;69.93;94209.50;5010598;28;20042;-67
2022/08/31 09:26:54;;;;;;;7.20;4.35;;;;;;;18.30;70.87;94201.41;5009047;28;20050;-65
2022/08/31 09:29:27;;;;;;;5.80;4.60;;;;;;;18.03;72.21;94213.22;5000868;28;20065;-72
2022/08/31 09:32:08;;;;;;;6.67;4.87;;;;;;;17.59;74.60;94210.50;5010078;28;20575;-67
2022/08/31 09:34:39;;;;;;;7.13;4.85;;;;;;;18.63;70.56;94205.63;5009976;28;20064;-65
2022/08/31 09:37:15;;;;;;;7.18;4.70;;;;;;;19.38;69.69;94207.22;5011041;28;20399;-64
2022/08/31 09:39:48;;;;;;;4.82;3.47;;;;;;;19.66;65.23;94197.59;5009650;28;20053;-69
2022/08/31 09:42:30;;;;;;;6.30;4.20;;;;;;;19.29;66.37;94202.44;5010940;28;20064;-64
2022/08/31 09:45:28;;;;;;;7.63;4.10;;;;;;;19.48;66.48;94208.78;5009474;28;20490;-65
2022/08/31 09:48:00;;;;;;;7.15;4.10;;;;;;;20.09;65.05;94206.75;5009797;28;20054;-66
2022/08/31 09:50:30;;;;;;;6.60;4.28;;;;;;;19.58;65.79;94215.88;5010549;28;20064;-64
2022/08/31 09:56:12;;;;;;;6.70;4.30;;;;;;;20.19;65.91;94201.16;5006155;28;20402;-67
2022/08/31 09:58:41;;;;;;;8.43;4.77;;;;;;;20.17;66.65;94209.97;4996485;28;20491;-69
2022/08/31 10:01:19;;;;;;;7.10;5.20;;;;;;;19.99;67.74;94210.81;5010411;28;20052;-67
2022/08/31 10:03:47;;;;;;;7.72;5.07;;;;;;;19.47;69.34;94210.00;5008197;28;20042;-70
2022/08/31 10:06:42;;;;;;;8.65;5.10;;;;;;;19.83;68.19;94208.41;5010173;28;20534;-67
2022/08/31 10:09:27;;;;;;;6.88;5.28;;;;;;;19.80;67.84;94214.91;5009145;28;21507;-68
2022/08/31 10:11:58;;;;;;;6.70;4.80;;;;;;;19.43;68.79;94218.50;5009210;28;20166;-66
2022/08/31 10:14:49;;;;;;;8.30;5.40;;;;;;;19.07;68.68;94222.09;5009469;28;20044;-66
2022/08/31 10:17:24;;;;;;;7.20;5.00;;;;;;;19.02;69.06;94222.72;5008993;28;20048;-66
2022/08/31 10:20:04;;;;;;;7.03;4.78;;;;;;;19.02;69.32;94229.03;5008738;28;20042;-64
2022/08/31 10:22:42;;;;;;;6.55;4.85;;;;;;;18.75;69.85;94224.97;5009634;28;20498;-67
2022/08/31 10:25:13;;;;;;;8.00;5.03;;;;;;;18.79;69.71;94227.63;5009835;28;20048;-67
2022/08/31 10:27:56;;;;;;;6.85;4.90;;;;;;;19.13;68.94;94236.91;5008714;28;20054;-69
2022/08/31 10:30:53;;;;;;;7.47;4.63;;;;;;;18.83;69.28;94224.69;5009689;28;20430;-67
2022/08/31 10:35:01;;;;;;;6.20;4.63;;;;;;;19.11;68.80;94226.25;5007214;28;20406;-64
2022/08/31 10:36:14;;;;;;;6.25;4.53;;;;;;;19.43;68.06;94224.06;5006889;28;20068;-64
2022/08/31 10:38:47;;;;;;;7.13;5.00;;;;;;;19.98;66.70;94228.00;5008981;28;20042;-66
2022/08/31 10:41:43;;;;;;;7.18;4.70;;;;;;;20.25;65.46;94222.31;5009746;28;20383;-68
2022/08/31 10:44:25;;;;;;;6.78;4.80;;;;;;;20.40;64.92;94227.22;5007554;28;22093;-66
2022/08/31 10:47:01;;;;;;;7.43;5.00;;;;;;;19.85;66.32;94219.84;5008940;28;20431;-65
2022/08/31 10:49:28;;;;;;;7.68;5.20;;;;;;;20.07;64.04;94214.03;5008923;28;20415;-65
2022/08/31 10:52:16;;;;;;;6.83;4.83;;;;;;;20.86;62.39;94208.22;5009477;28;20446;-67
2022/08/31 10:54:46;;;;;;;6.55;4.85;;;;;;;20.94;62.14;94205.84;5008221;28;20045;-65
2022/08/31 10:57:18;;;;;;;6.93;5.03;;;;;;;20.99;61.42;94207.97;5009250;28;20367;-67
2022/08/31 11:00:40;;;;;;;7.00;4.85;;;;;;;21.14;61.03;94208.00;5009094;28;20084;-65
2022/08/31 11:03:10;;;;;;;7.40;5.10;;;;;;;20.63;62.00;94218.13;4996610;28;20938;-65
2022/08/31 11:05:52;;;;;;;7.63;5.17;;;;;;;21.52;60.45;94200.88;5008468;28;20046;-65
2022/08/31 11:08:48;;;;;;;7.22;5.15;;;;;;;20.48;61.59;94217.25;5008174;28;20080;-71
2022/08/31 11:11:23;;;;;;;7.40;5.40;;;;;;;20.33;62.56;94212.38;5008139;28;20045;-70
2022/08/31 11:14:22;;;;;;;8.07;5.35;;;;;;;19.70;65.61;94212.13;5008210;28;20041;-69
2022/08/31 11:16:52;;;;;;;8.70;5.13;;;;;;;21.66;60.44;94208.50;5007035;28;20081;-70
2022/08/31 11:19:36;;;;;;;10.63;5.60;;;;;;;20.39;63.51;94200.59;5008263;28;20045;-66
2022/08/31 11:22:12;;;;;;;7.28;5.25;;;;;;;22.19;57.03;94190.03;5008241;28;20843;-71
2022/08/31 11:24:59;;;;;;;8.52;5.13;;;;;;;22.36;56.31;94189.56;5007727;28;20038;-66
2022/08/31 11:27:35;;;;;;;6.10;4.72;;;;;;;23.63;53.40;94185.25;5008807;28;20042;-65
2022/08/31 11:30:23;;;;;;;11.90;5.80;;;;;;;20.05;61.93;94197.03;5022198;28;20037;-65
2022/08/31 11:32:56;;;;;;;7.77;5.37;;;;;;;21.61;58.33;94189.63;5007222;28;20044;-65
2022/08/31 11:35:58;;;;;;;6.35;4.47;;;;;;;23.26;54.12;94193.53;5008139;28;20395;-68
2022/08/31 11:38:40;;;;;;;6.43;4.40;;;;;;;23.64;52.35;94183.22;5007038;28;22237;-66
2022/08/31 11:41:09;;;;;;;7.00;4.75;;;;;;;22.92;53.47;94182.69;5008084;28;20042;-68
2022/08/31 11:43:47;;;;;;;7.15;4.43;;;;;;;23.83;51.70;94186.50;5005777;28;20435;-67
2022/08/31 11:46:27;;;;;;;8.87;4.80;;;;;;;21.29;57.77;94189.28;5006291;28;20045;-68
2022/08/31 11:48:54;;;;;;;6.85;5.05;;;;;;;19.83;61.27;94184.09;5006635;28;20404;-66
2022/08/31 11:51:40;;;;;;;7.43;5.10;;;;;;;20.07;60.93;94177.84;5007726;28;20068;-67
2022/08/31 11:54:40;;;;;;;6.70;5.00;;;;;;;21.00;57.64;94166.91;5007245;28;20856;-69
2022/08/31 11:57:14;;;;;;;6.88;4.80;;;;;;;20.89;57.93;94167.44;4993502;28;21658;-66
2022/08/31 11:59:46;;;;;;;6.10;4.40;;;;;;;20.60;58.48;94165.31;5006660;28;20055;-69
2022/08/31 12:02:19;;;;;;;7.70;4.95;;;;;;;20.03;60.48;94171.66;5008138;28;20048;-66
2022/08/31 12:04:46;;;;;;;6.60;4.35;;;;;;;20.70;58.64;94161.97;5007502;28;20057;-69
2022/08/31 12:07:27;;;;;;;7.03;4.80;;;;;;;18.22;65.50;94175.16;5008103;28;20050;-68